createdAt,value
2022-11-28T00:01:41.870Z,90.02
2022-11-28T00:04:09.664Z,90.08
2022-11-28T00:06:40.879Z,90.01
2022-11-28T00:09:09.077Z,90.16
2022-11-28T00:11:36.229Z,89.63
2022-11-28T00:14:03.492Z,89.77
2022-11-28T00:16:31.000Z,89.83
2022-11-28T00:19:00.491Z,89.96
2022-11-28T00:21:29.148Z,90.08
2022-11-28T00:23:56.109Z,90.06
2022-11-28T00:26:37.508Z,89.84
2022-11-28T00:29:06.841Z,89.85
2022-11-28T00:31:37.023Z,90.06
2022-11-28T00:34:04.040Z,89.93
2022-11-28T00:36:31.234Z,90.21
2022-11-28T00:38:58.154Z,90.06
2022-11-28T00:41:28.772Z,89.97
2022-11-28T00:43:56.838Z,89.85
2022-11-28T00:46:24.925Z,89.73
2022-11-28T00:48:52.715Z,89.89
2022-11-28T00:51:23.017Z,90.05
2022-11-28T00:53:52.918Z,89.68
2022-11-28T00:56:24.562Z,89.97
2022-11-28T00:58:52.481Z,89.68
2022-11-28T01:01:26.307Z,89.87
2022-11-28T01:03:56.523Z,89.83
2022-11-28T01:06:25.292Z,89.72
2022-11-28T01:08:52.938Z,89.56
2022-11-28T01:11:20.057Z,89.67
2022-11-28T01:13:47.480Z,89.91
2022-11-28T01:16:15.106Z,89.64
2022-11-28T01:18:42.441Z,89.69
2022-11-28T01:21:09.932Z,89.83
2022-11-28T01:23:37.494Z,89.86
2022-11-28T01:26:07.185Z,89.58
2022-11-28T01:28:35.351Z,89.57
2022-11-28T01:31:11.503Z,89.85
2022-11-28T01:33:38.927Z,89.75
2022-11-28T01:36:05.997Z,89.81
2022-11-28T01:38:34.808Z,89.88
2022-11-28T01:41:02.349Z,90.06
2022-11-28T01:43:29.572Z,90.10
2022-11-28T01:45:56.516Z,90.26
2022-11-28T01:48:27.072Z,90.58
2022-11-28T01:50:58.681Z,90.35
2022-11-28T01:53:30.560Z,90.51
2022-11-28T01:56:13.184Z,90.43
2022-11-28T01:58:43.693Z,90.53
2022-11-28T02:01:24.666Z,90.49
2022-11-28T02:04:02.827Z,90.75
2022-11-28T02:06:32.914Z,90.68
2022-11-28T02:08:59.831Z,90.74
2022-11-28T02:12:01.267Z,90.78
2022-11-28T02:14:54.720Z,90.86
2022-11-28T02:17:43.609Z,91.14
2022-11-28T02:21:04.812Z,91.18
2022-11-28T02:23:59.063Z,91.33
2022-11-28T02:27:10.623Z,91.56
2022-11-28T02:29:56.300Z,91.80
2022-11-28T02:32:45.574Z,91.71
2022-11-28T02:35:12.666Z,91.83
2022-11-28T02:37:45.626Z,92.00
2022-11-28T02:40:32.424Z,92.17
2022-11-28T02:42:59.250Z,92.27
2022-11-28T02:45:29.233Z,91.99
2022-11-28T02:48:10.916Z,91.99
2022-11-28T02:50:47.061Z,91.97
2022-11-28T02:53:20.220Z,91.61
2022-11-28T02:55:49.095Z,91.89
2022-11-28T02:58:15.976Z,91.70
2022-11-28T03:00:45.193Z,91.80
2022-11-28T03:03:30.984Z,91.90
2022-11-28T03:06:30.392Z,92.03
2022-11-28T03:09:09.643Z,92.04
2022-11-28T03:12:14.067Z,92.37
2022-11-28T03:14:55.181Z,92.13
2022-11-28T03:17:27.277Z,91.85
2022-11-28T03:20:23.840Z,91.88
2022-11-28T03:23:17.853Z,91.52
2022-11-28T03:25:56.469Z,91.10
2022-11-28T03:28:30.094Z,90.83
2022-11-28T03:31:05.501Z,90.78
2022-11-28T03:33:39.060Z,90.86
2022-11-28T03:36:22.634Z,90.45
2022-11-28T03:38:54.777Z,90.18
2022-11-28T03:41:31.082Z,90.25
2022-11-28T03:43:59.098Z,89.94
2022-11-28T03:46:34.547Z,89.75
2022-11-28T03:49:27.503Z,89.93
2022-11-28T03:52:03.852Z,89.72
2022-11-28T03:54:52.277Z,89.80
2022-11-28T03:57:34.725Z,89.72
2022-11-28T04:00:14.838Z,89.87
2022-11-28T04:03:18.900Z,89.57
2022-11-28T04:06:08.215Z,89.51
2022-11-28T04:08:42.321Z,89.80
2022-11-28T04:11:34.801Z,89.64
2022-11-28T04:14:20.461Z,89.91
2022-11-28T04:16:58.533Z,89.52
2022-11-28T04:19:44.877Z,89.82
2022-11-28T04:22:35.468Z,89.64
2022-11-28T04:25:10.202Z,89.52
2022-11-28T04:27:46.937Z,89.69
2022-11-28T04:30:14.563Z,89.87
2022-11-28T04:32:50.690Z,89.71
2022-11-28T04:35:26.645Z,89.81
2022-11-28T04:37:55.397Z,89.80
2022-11-28T04:40:24.070Z,89.92
2022-11-28T04:42:56.151Z,89.95
2022-11-28T04:45:43.938Z,89.84
2022-11-28T04:48:12.094Z,89.90
2022-11-28T04:51:01.688Z,90.21
2022-11-28T04:54:17.780Z,90.58
2022-11-28T04:56:52.771Z,90.62
2022-11-28T04:59:26.281Z,90.71
2022-11-28T05:02:00.091Z,90.80
2022-11-28T05:04:27.776Z,90.94
2022-11-28T05:07:03.127Z,91.24
2022-11-28T05:09:33.854Z,90.87
2022-11-28T05:12:01.369Z,91.10
2022-11-28T05:14:29.247Z,91.07
2022-11-28T05:17:08.717Z,91.31
2022-11-28T05:19:39.121Z,91.36
2022-11-28T05:22:06.433Z,91.40
2022-11-28T05:24:33.292Z,91.52
2022-11-28T05:27:04.711Z,91.37
2022-11-28T05:29:31.745Z,91.41
2022-11-28T05:31:58.691Z,91.08
2022-11-28T05:34:25.885Z,91.17
2022-11-28T05:36:52.891Z,90.94
2022-11-28T05:39:19.773Z,90.88
2022-11-28T05:41:48.920Z,90.73
2022-11-28T05:44:17.070Z,90.93
2022-11-28T05:46:44.018Z,90.55
2022-11-28T05:49:10.913Z,90.18
2022-11-28T05:51:37.925Z,90.30
2022-11-28T05:54:05.346Z,90.10
2022-11-28T05:56:32.795Z,89.90
2022-11-28T05:58:59.693Z,89.96
2022-11-28T06:01:28.767Z,90.09
2022-11-28T06:04:01.150Z,89.55
2022-11-28T06:06:31.209Z,89.48
2022-11-28T06:08:58.756Z,89.39
2022-11-28T06:11:28.886Z,89.29
2022-11-28T06:13:56.053Z,89.61
2022-11-28T06:16:25.648Z,89.60
2022-11-28T06:18:54.980Z,89.50
2022-11-28T06:21:22.096Z,89.59
2022-11-28T06:23:49.609Z,89.68
2022-11-28T06:26:19.354Z,90.00
2022-11-28T06:28:46.646Z,90.19
2022-11-28T06:31:19.652Z,90.21
2022-11-28T06:33:47.013Z,90.36
2022-11-28T06:36:19.055Z,90.52
2022-11-28T06:38:46.911Z,90.76
2022-11-28T06:41:17.478Z,90.82
2022-11-28T06:43:44.612Z,90.81
2022-11-28T06:46:16.303Z,90.81
2022-11-28T06:48:44.581Z,90.73
2022-11-28T06:51:12.688Z,90.53
2022-11-28T06:53:40.063Z,90.70
2022-11-28T06:56:09.394Z,90.58
2022-11-28T06:58:37.386Z,90.23
2022-11-28T07:01:13.653Z,90.28
2022-11-28T07:03:41.500Z,89.84
2022-11-28T07:06:09.042Z,89.76
2022-11-28T07:08:36.231Z,89.94
2022-11-28T07:11:32.006Z,90.06
2022-11-28T07:14:01.947Z,90.15
2022-11-28T07:16:31.574Z,90.18
2022-11-28T07:18:59.582Z,90.33
2022-11-28T07:21:27.154Z,90.36
2022-11-28T07:23:54.369Z,90.35
2022-11-28T07:26:22.539Z,89.80
2022-11-28T07:28:51.095Z,89.26
2022-11-28T07:31:25.607Z,88.96
2022-11-28T07:33:53.075Z,88.96
2022-11-28T07:36:28.001Z,88.74
2022-11-28T07:38:57.898Z,88.83
2022-11-28T07:41:27.063Z,89.03
2022-11-28T07:44:00.147Z,89.30
2022-11-28T07:46:29.748Z,89.57
2022-11-28T07:48:57.472Z,89.73
2022-11-28T07:51:27.406Z,89.93
2022-11-28T07:53:54.936Z,90.09
2022-11-28T07:56:25.494Z,90.21
2022-11-28T07:58:52.895Z,89.51
2022-11-28T08:01:23.200Z,89.35
2022-11-28T08:03:51.612Z,89.56
2022-11-28T08:06:21.166Z,89.48
2022-11-28T08:08:48.835Z,88.47
2022-11-28T08:11:17.716Z,88.41
2022-11-28T08:13:45.488Z,88.88
2022-11-28T08:16:21.284Z,88.53
2022-11-28T08:18:49.171Z,88.54
2022-11-28T08:21:30.671Z,88.96
2022-11-28T08:24:00.741Z,88.94
2022-11-28T08:26:30.829Z,88.00
2022-11-28T08:28:58.995Z,88.26
2022-11-28T08:31:34.827Z,88.47
2022-11-28T08:34:07.130Z,87.58
2022-11-28T08:36:34.078Z,87.77
2022-11-28T08:39:22.307Z,87.43
2022-11-28T08:41:49.928Z,87.00
2022-11-28T08:44:17.011Z,86.87
2022-11-28T08:46:45.092Z,85.84
2022-11-28T08:49:12.196Z,85.72
2022-11-28T08:51:39.177Z,86.19
2022-11-28T08:54:06.608Z,85.61
2022-11-28T08:56:34.341Z,85.60
2022-11-28T08:59:01.568Z,85.23
2022-11-28T09:01:29.226Z,84.58
2022-11-28T09:03:57.127Z,85.21
2022-11-28T09:06:24.075Z,85.51
2022-11-28T09:08:51.725Z,86.25
2022-11-28T09:11:22.763Z,86.31
2022-11-28T09:13:50.045Z,85.94
2022-11-28T09:16:17.810Z,85.67
2022-11-28T09:18:45.004Z,86.01
2022-11-28T09:21:13.928Z,86.14
2022-11-28T09:23:42.601Z,86.24
2022-11-28T09:26:11.716Z,86.41
2022-11-28T09:28:38.627Z,86.33
2022-11-28T09:31:07.099Z,85.95
2022-11-28T09:33:34.721Z,85.55
2022-11-28T09:36:09.725Z,85.19
2022-11-28T09:38:37.246Z,85.50
2022-11-28T09:41:18.468Z,85.33
2022-11-28T09:43:52.002Z,85.88
2022-11-28T09:46:29.183Z,85.57
2022-11-28T09:49:00.637Z,85.82
2022-11-28T09:52:10.644Z,84.81
2022-11-28T09:54:43.242Z,84.34
2022-11-28T09:57:21.841Z,83.76
2022-11-28T09:59:49.245Z,82.89
2022-11-28T10:02:16.435Z,81.75
2022-11-28T10:05:24.638Z,81.11
2022-11-28T10:08:04.113Z,79.40
2022-11-28T10:10:50.492Z,79.00
2022-11-28T10:13:59.816Z,78.29
2022-11-28T10:17:09.865Z,77.44
2022-11-28T10:19:54.270Z,76.61
2022-11-28T10:22:32.458Z,76.65
2022-11-28T10:25:06.412Z,76.47
2022-11-28T10:27:36.067Z,76.21
2022-11-28T10:30:08.008Z,75.28
2022-11-28T10:32:40.542Z,75.23
2022-11-28T10:35:26.711Z,75.34
2022-11-28T10:37:55.423Z,75.30
2022-11-28T10:40:32.828Z,73.13
2022-11-28T10:43:12.467Z,72.59
2022-11-28T10:45:51.244Z,73.68
2022-11-28T10:48:39.903Z,73.46
2022-11-28T10:52:07.521Z,73.46
2022-11-28T10:54:46.832Z,73.83
2022-11-28T10:57:20.335Z,73.59
2022-11-28T11:00:03.919Z,72.72
2022-11-28T11:02:43.089Z,73.42
2022-11-28T11:05:19.389Z,73.89
2022-11-28T11:07:53.185Z,73.53
2022-11-28T11:10:33.205Z,73.58
2022-11-28T11:13:00.547Z,73.58
2022-11-28T11:15:33.586Z,73.96
2022-11-28T11:18:05.230Z,73.68
2022-11-28T11:20:40.097Z,73.22
2022-11-28T11:23:20.335Z,73.69
2022-11-28T11:25:58.397Z,73.03
2022-11-28T11:28:25.503Z,73.05
2022-11-28T11:31:00.523Z,73.00
2022-11-28T11:33:36.867Z,72.72
2022-11-28T11:36:06.191Z,73.36
2022-11-28T11:38:37.762Z,72.32
2022-11-28T11:41:29.625Z,73.04
2022-11-28T11:44:20.649Z,72.79
2022-11-28T11:47:11.109Z,71.81
2022-11-28T11:49:48.472Z,72.16
2022-11-28T11:52:26.595Z,71.94
2022-11-28T11:54:57.053Z,72.01
2022-11-28T11:58:05.489Z,72.41
2022-11-28T12:00:40.779Z,71.66
2022-11-28T12:03:35.479Z,71.16
2022-11-28T12:06:15.229Z,69.67
2022-11-28T12:08:51.437Z,69.89
2022-11-28T12:11:22.142Z,69.32
2022-11-28T12:13:50.894Z,69.36
2022-11-28T12:16:23.627Z,69.06
2022-11-28T12:19:23.443Z,69.69
2022-11-28T12:22:28.493Z,69.72
2022-11-28T12:25:05.074Z,68.96
2022-11-28T12:27:59.328Z,68.32
2022-11-28T12:30:26.250Z,68.54
2022-11-28T12:33:08.708Z,68.53
2022-11-28T12:35:42.311Z,68.01
2022-11-28T12:38:11.207Z,66.82
2022-11-28T12:40:59.428Z,66.38
2022-11-28T12:43:47.643Z,66.90
2022-11-28T12:46:23.831Z,66.79
2022-11-28T12:48:53.925Z,66.47
2022-11-28T12:51:57.545Z,67.10
2022-11-28T12:54:42.687Z,67.38
2022-11-28T12:57:41.060Z,65.96
2022-11-28T13:00:28.364Z,66.13
2022-11-28T13:03:24.813Z,65.77
2022-11-28T13:06:03.263Z,65.89
2022-11-28T13:08:48.000Z,66.07
2022-11-28T13:11:37.175Z,66.81
2022-11-28T13:14:27.395Z,67.29
2022-11-28T13:16:59.428Z,66.79
2022-11-28T13:19:54.722Z,66.64
2022-11-28T13:22:33.246Z,66.99
2022-11-28T13:25:08.474Z,67.32
2022-11-28T13:27:49.146Z,67.08
2022-11-28T13:30:27.008Z,67.07
2022-11-28T13:33:29.907Z,67.51
2022-11-28T13:36:00.003Z,67.56
2022-11-28T13:38:51.992Z,67.56
2022-11-28T13:42:16.197Z,67.54
2022-11-28T13:45:15.484Z,67.80
2022-11-28T13:47:42.855Z,67.82
2022-11-28T13:50:25.088Z,68.12
2022-11-28T13:53:25.502Z,68.64
2022-11-28T13:56:07.916Z,68.45
2022-11-28T13:58:48.655Z,68.58
2022-11-28T14:01:24.932Z,69.26
2022-11-28T14:04:01.541Z,68.96
2022-11-28T14:06:40.153Z,69.38
2022-11-28T14:09:16.257Z,69.43
2022-11-28T14:12:03.532Z,69.89
2022-11-28T14:14:57.135Z,70.86
2022-11-28T14:17:43.261Z,71.24
2022-11-28T14:20:13.373Z,71.63
2022-11-28T14:22:47.994Z,71.72
2022-11-28T14:25:28.790Z,71.95
2022-11-28T14:27:59.809Z,71.43
2022-11-28T14:30:34.501Z,71.69
2022-11-28T14:33:06.747Z,71.18
2022-11-28T14:35:52.397Z,70.87
2022-11-28T14:38:32.301Z,71.20
2022-11-28T14:41:04.297Z,72.16
2022-11-28T14:43:33.802Z,72.20
2022-11-28T14:47:21.927Z,72.23
2022-11-28T14:50:10.588Z,72.70
2022-11-28T14:52:52.215Z,72.84
2022-11-28T14:55:22.490Z,73.02
2022-11-28T14:58:05.418Z,73.03
2022-11-28T15:00:58.033Z,73.49
2022-11-28T15:03:43.523Z,74.11
2022-11-28T15:06:37.289Z,74.10
2022-11-28T15:09:19.045Z,74.24
2022-11-28T15:12:08.392Z,73.87
2022-11-28T15:14:38.310Z,73.75
2022-11-28T15:17:11.685Z,73.89
2022-11-28T15:19:48.234Z,73.83
2022-11-28T15:22:31.941Z,74.44
2022-11-28T15:24:59.278Z,74.64
2022-11-28T15:27:28.065Z,74.73
2022-11-28T15:29:56.652Z,74.47
2022-11-28T15:32:25.733Z,74.58
2022-11-28T15:34:57.048Z,74.26
2022-11-28T15:37:29.664Z,74.36
2022-11-28T15:39:57.705Z,74.17
2022-11-28T15:42:29.759Z,74.54
2022-11-28T15:45:06.354Z,74.41
2022-11-28T15:47:35.143Z,74.62
2022-11-28T15:50:21.012Z,74.47
2022-11-28T15:52:56.003Z,74.82
2022-11-28T15:55:23.215Z,75.11
2022-11-28T15:57:52.145Z,75.04
2022-11-28T16:00:22.051Z,74.80
2022-11-28T16:02:49.582Z,74.73
2022-11-28T16:05:23.672Z,74.32
2022-11-28T16:07:51.600Z,74.08
2022-11-28T16:10:29.484Z,74.60
2022-11-28T16:13:03.424Z,74.61
2022-11-28T16:15:32.415Z,74.72
2022-11-28T16:18:00.516Z,75.12
2022-11-28T16:20:34.104Z,75.05
2022-11-28T16:23:08.950Z,74.65
2022-11-28T16:25:36.390Z,74.62
2022-11-28T16:28:03.978Z,74.58
2022-11-28T16:30:48.083Z,74.58
2022-11-28T16:33:38.462Z,74.66
2022-11-28T16:36:18.358Z,74.36
2022-11-28T16:38:47.416Z,74.59
2022-11-28T16:41:25.567Z,74.34
2022-11-28T16:43:56.564Z,74.87
2022-11-28T16:46:27.447Z,74.68
2022-11-28T16:48:59.616Z,75.02
2022-11-28T16:51:26.468Z,75.13
2022-11-28T16:53:56.433Z,75.44
2022-11-28T16:56:27.598Z,75.22
2022-11-28T16:59:00.859Z,75.51
2022-11-28T17:01:29.219Z,75.55
2022-11-28T17:03:57.796Z,75.32
2022-11-28T17:06:27.485Z,75.39
2022-11-28T17:08:57.931Z,75.20
2022-11-28T17:11:33.097Z,75.28
2022-11-28T17:14:02.551Z,75.19
2022-11-28T17:16:33.756Z,75.39
2022-11-28T17:19:00.784Z,75.56
2022-11-28T17:21:34.538Z,75.59
2022-11-28T17:24:02.020Z,74.97
2022-11-28T17:26:29.085Z,74.80
2022-11-28T17:28:58.222Z,74.77
2022-11-28T17:31:25.232Z,74.84
2022-11-28T17:33:52.423Z,74.60
2022-11-28T17:36:19.389Z,74.68
2022-11-28T17:38:46.729Z,74.43
2022-11-28T17:41:14.810Z,74.18
2022-11-28T17:43:41.983Z,74.39
2022-11-28T17:46:09.720Z,74.14
2022-11-28T17:48:37.013Z,74.20
2022-11-28T17:51:04.835Z,74.17
2022-11-28T17:53:32.425Z,74.26
2022-11-28T17:55:59.952Z,74.03
2022-11-28T17:58:28.899Z,73.74
2022-11-28T18:01:00.569Z,73.70
2022-11-28T18:03:29.894Z,73.74
2022-11-28T18:05:57.466Z,73.51
2022-11-28T18:08:24.566Z,73.65
2022-11-28T18:11:03.363Z,73.82
2022-11-28T18:13:30.944Z,73.77
2022-11-28T18:15:58.132Z,73.69
2022-11-28T18:18:25.544Z,73.84
2022-11-28T18:20:52.784Z,73.99
2022-11-28T18:23:20.452Z,74.07
2022-11-28T18:25:47.862Z,73.92
2022-11-28T18:28:18.804Z,74.17
2022-11-28T18:30:48.630Z,73.87
2022-11-28T18:33:16.151Z,73.97
2022-11-28T18:35:43.728Z,74.01
2022-11-28T18:38:11.927Z,73.90
2022-11-28T18:40:39.587Z,73.94
2022-11-28T18:43:06.849Z,74.01
2022-11-28T18:45:34.801Z,73.54
2022-11-28T18:48:02.805Z,73.25
2022-11-28T18:50:30.600Z,72.76
2022-11-28T18:52:57.735Z,73.11
2022-11-28T18:55:25.292Z,72.78
2022-11-28T18:57:52.268Z,72.79
2022-11-28T19:00:20.343Z,72.72
2022-11-28T19:02:49.293Z,72.89
2022-11-28T19:05:16.454Z,73.01
2022-11-28T19:07:43.654Z,73.17
2022-11-28T19:10:12.296Z,73.09
2022-11-28T19:12:41.097Z,73.14
2022-11-28T19:15:08.415Z,72.92
2022-11-28T19:17:35.854Z,72.84
2022-11-28T19:20:03.806Z,72.57
2022-11-28T19:22:31.497Z,72.38
2022-11-28T19:24:58.626Z,72.39
2022-11-28T19:27:25.763Z,72.80
2022-11-28T19:29:53.468Z,73.29
2022-11-28T19:32:20.422Z,73.33
2022-11-28T19:34:52.267Z,73.74
2022-11-28T19:37:19.575Z,74.20
2022-11-28T19:39:46.877Z,74.27
2022-11-28T19:42:14.092Z,74.93
2022-11-28T19:44:41.207Z,74.77
2022-11-28T19:47:08.818Z,74.71
2022-11-28T19:49:35.895Z,74.97
2022-11-28T19:52:02.981Z,74.99
2022-11-28T19:54:30.196Z,75.24
2022-11-28T19:56:57.343Z,75.22
2022-11-28T19:59:24.834Z,75.14
2022-11-28T20:01:54.033Z,74.86
2022-11-28T20:04:22.655Z,75.00
2022-11-28T20:06:49.913Z,74.91
2022-11-28T20:09:17.595Z,74.98
2022-11-28T20:11:45.747Z,74.71
2022-11-28T20:14:22.468Z,74.71
2022-11-28T20:16:50.169Z,74.43
2022-11-28T20:19:18.372Z,74.72
2022-11-28T20:21:46.474Z,74.43
2022-11-28T20:24:14.435Z,74.58
2022-11-28T20:26:43.680Z,74.72
2022-11-28T20:29:17.019Z,74.36
2022-11-28T20:31:47.466Z,74.38
2022-11-28T20:34:18.641Z,74.18
2022-11-28T20:36:51.480Z,73.98
2022-11-28T20:39:19.131Z,74.18
2022-11-28T20:41:45.949Z,74.29
2022-11-28T20:44:13.066Z,74.22
2022-11-28T20:46:40.166Z,74.35
2022-11-28T20:49:07.666Z,74.16
2022-11-28T20:51:35.724Z,74.21
2022-11-28T20:54:05.129Z,73.96
2022-11-28T20:56:51.563Z,74.30
2022-11-28T20:59:22.074Z,74.19
2022-11-28T21:01:49.304Z,74.31
2022-11-28T21:04:17.836Z,74.35
2022-11-28T21:06:47.540Z,73.68
2022-11-28T21:09:15.252Z,73.88
2022-11-28T21:11:56.827Z,73.74
2022-11-28T21:14:25.459Z,73.96
2022-11-28T21:16:52.362Z,74.08
2022-11-28T21:19:19.477Z,74.45
2022-11-28T21:21:46.411Z,74.38
2022-11-28T21:24:13.993Z,74.34
2022-11-28T21:26:48.079Z,74.02
2022-11-28T21:29:18.134Z,74.31
2022-11-28T21:31:45.868Z,74.49
2022-11-28T21:34:14.720Z,75.00
2022-11-28T21:36:42.713Z,75.17
2022-11-28T21:39:19.955Z,75.41
2022-11-28T21:41:47.566Z,75.23
2022-11-28T21:44:14.915Z,75.31
2022-11-28T21:46:42.700Z,75.20
2022-11-28T21:49:09.832Z,75.19
2022-11-28T21:51:39.925Z,75.29
2022-11-28T21:54:07.374Z,75.19
2022-11-28T21:56:34.476Z,75.25
2022-11-28T21:59:01.685Z,75.63
2022-11-28T22:01:29.293Z,75.67
2022-11-28T22:04:02.339Z,75.92
2022-11-28T22:06:32.257Z,75.76
2022-11-28T22:09:07.313Z,75.76
2022-11-28T22:11:36.080Z,76.07
2022-11-28T22:14:03.874Z,76.10
2022-11-28T22:16:31.287Z,75.86
2022-11-28T22:19:00.125Z,75.80
2022-11-28T22:24:14.687Z,75.90
2022-11-28T22:26:43.177Z,75.89
2022-11-28T22:29:13.421Z,76.08
2022-11-28T22:31:41.216Z,76.17
2022-11-28T22:34:09.293Z,76.37
2022-11-28T22:36:36.768Z,76.27
2022-11-28T22:39:08.139Z,76.43
2022-11-28T22:41:35.133Z,76.32
2022-11-28T22:44:04.341Z,76.42
2022-11-28T22:46:32.976Z,76.18
2022-11-28T22:49:02.340Z,76.55
2022-11-28T22:51:31.421Z,76.24
2022-11-28T22:54:01.088Z,76.28
2022-11-28T22:56:31.646Z,76.48
2022-11-28T22:59:00.063Z,76.52
2022-11-28T23:01:30.495Z,76.79
2022-11-28T23:03:58.658Z,76.73
2022-11-28T23:06:29.321Z,76.80
2022-11-28T23:08:58.888Z,76.98
2022-11-28T23:11:31.108Z,76.90
2022-11-28T23:14:00.132Z,77.09
2022-11-28T23:16:39.061Z,77.12
2022-11-28T23:19:11.537Z,76.95
2022-11-28T23:21:41.018Z,77.05
2022-11-28T23:24:13.919Z,77.12
2022-11-28T23:26:41.077Z,77.14
2022-11-28T23:29:08.130Z,76.97
2022-11-28T23:31:39.100Z,77.16
2022-11-28T23:34:08.504Z,77.35
2022-11-28T23:36:42.057Z,77.64
2022-11-28T23:39:15.514Z,77.47
2022-11-28T23:41:43.427Z,77.61
2022-11-28T23:44:11.853Z,77.59
2022-11-28T23:46:39.544Z,77.54
2022-11-28T23:49:06.863Z,77.92
2022-11-28T23:51:34.092Z,77.46
2022-11-28T23:54:01.300Z,77.16
2022-11-28T23:56:30.586Z,77.24
2022-11-28T23:58:59.773Z,77.12
